sensor_id;sensor_type;location;lat;lon;timestamp;temperature;humidity
21559;DHT22;10940;48.890;8.240;2023-04-03T00:00:07;5.20;99.90
21559;DHT22;10940;48.890;8.240;2023-04-03T00:02:33;5.20;99.90
21559;DHT22;10940;48.890;8.240;2023-04-03T00:04:59;5.20;99.90
21559;DHT22;10940;48.890;8.240;2023-04-03T00:07:25;5.20;99.90
21559;DHT22;10940;48.890;8.240;2023-04-03T00:09:51;5.20;99.90
21559;DHT22;10940;48.890;8.240;2023-04-03T00:12:16;5.20;99.90
21559;DHT22;10940;48.890;8.240;2023-04-03T00:14:42;5.20;99.90
21559;DHT22;10940;48.890;8.240;2023-04-03T00:17:07;5.20;99.90
21559;DHT22;10940;48.890;8.240;2023-04-03T00:19:33;5.20;99.90
21559;DHT22;10940;48.890;8.240;2023-04-03T00:21:59;5.20;99.90
21559;DHT22;10940;48.890;8.240;2023-04-03T00:24:24;5.10;99.90
21559;DHT22;10940;48.890;8.240;2023-04-03T00:26:50;5.10;99.90
21559;DHT22;10940;48.890;8.240;2023-04-03T00:29:16;5.10;99.90
21559;DHT22;10940;48.890;8.240;2023-04-03T00:31:41;5.10;99.90
21559;DHT22;10940;48.890;8.240;2023-04-03T00:34:07;5.10;99.90
21559;DHT22;10940;48.890;8.240;2023-04-03T00:36:32;5.10;99.90
21559;DHT22;10940;48.890;8.240;2023-04-03T00:38:58;5.10;99.90
21559;DHT22;10940;48.890;8.240;2023-04-03T00:41:23;5.10;99.90
21559;DHT22;10940;48.890;8.240;2023-04-03T00:43:49;5.10;99.90
21559;DHT22;10940;48.890;8.240;2023-04-03T00:46:15;5.10;99.90
21559;DHT22;10940;48.890;8.240;2023-04-03T00:48:43;5.10;99.90
21559;DHT22;10940;48.890;8.240;2023-04-03T00:51:13;5.00;99.90
21559;DHT22;10940;48.890;8.240;2023-04-03T00:53:54;5.10;99.90
21559;DHT22;10940;48.890;8.240;2023-04-03T00:56:23;5.00;99.90
21559;DHT22;10940;48.890;8.240;2023-04-03T00:58:59;5.10;99.90
21559;DHT22;10940;48.890;8.240;2023-04-03T01:01:28;5.00;99.90
21559;DHT22;10940;48.890;8.240;2023-04-03T01:03:54;5.00;99.90
21559;DHT22;10940;48.890;8.240;2023-04-03T01:06:34;5.10;99.90
21559;DHT22;10940;48.890;8.240;2023-04-03T01:09:00;5.10;99.90
21559;DHT22;10940;48.890;8.240;2023-04-03T01:11:26;5.10;99.90
21559;DHT22;10940;48.890;8.240;2023-04-03T01:13:52;5.10;99.90
21559;DHT22;10940;48.890;8.240;2023-04-03T01:16:18;5.00;99.90
21559;DHT22;10940;48.890;8.240;2023-04-03T01:18:45;5.10;99.90
21559;DHT22;10940;48.890;8.240;2023-04-03T01:21:27;5.00;99.90
21559;DHT22;10940;48.890;8.240;2023-04-03T01:26:34;5.00;99.90
21559;DHT22;10940;48.890;8.240;2023-04-03T01:29:01;5.00;99.90
21559;DHT22;10940;48.890;8.240;2023-04-03T01:31:31;4.90;99.90
21559;DHT22;10940;48.890;8.240;2023-04-03T01:33:58;5.00;99.90
21559;DHT22;10940;48.890;8.240;2023-04-03T01:36:26;4.90;99.90
21559;DHT22;10940;48.890;8.240;2023-04-03T01:38:53;4.90;99.90
21559;DHT22;10940;48.890;8.240;2023-04-03T01:41:20;4.90;99.90
21559;DHT22;10940;48.890;8.240;2023-04-03T01:43:47;4.90;99.90
21559;DHT22;10940;48.890;8.240;2023-04-03T01:46:13;4.90;99.90
21559;DHT22;10940;48.890;8.240;2023-04-03T01:48:39;4.90;99.90
21559;DHT22;10940;48.890;8.240;2023-04-03T01:51:05;4.90;99.90
21559;DHT22;10940;48.890;8.240;2023-04-03T01:53:30;4.80;99.90
21559;DHT22;10940;48.890;8.240;2023-04-03T01:55:56;4.80;99.90
21559;DHT22;10940;48.890;8.240;2023-04-03T01:58:21;4.90;99.90
21559;DHT22;10940;48.890;8.240;2023-04-03T02:00:47;4.80;99.90
21559;DHT22;10940;48.890;8.240;2023-04-03T02:03:13;4.80;99.90
21559;DHT22;10940;48.890;8.240;2023-04-03T02:05:39;4.80;99.90
21559;DHT22;10940;48.890;8.240;2023-04-03T02:08:05;4.70;99.90
21559;DHT22;10940;48.890;8.240;2023-04-03T02:10:31;4.70;99.90
21559;DHT22;10940;48.890;8.240;2023-04-03T02:12:56;4.70;99.90
21559;DHT22;10940;48.890;8.240;2023-04-03T02:15:22;4.60;99.90
21559;DHT22;10940;48.890;8.240;2023-04-03T02:17:47;4.60;99.90
21559;DHT22;10940;48.890;8.240;2023-04-03T02:20:13;4.60;99.90
21559;DHT22;10940;48.890;8.240;2023-04-03T02:22:39;4.50;99.90
21559;DHT22;10940;48.890;8.240;2023-04-03T02:25:04;4.50;99.90
21559;DHT22;10940;48.890;8.240;2023-04-03T02:27:30;4.50;99.90
21559;DHT22;10940;48.890;8.240;2023-04-03T02:29:57;4.50;99.90
21559;DHT22;10940;48.890;8.240;2023-04-03T02:32:22;4.40;99.90
21559;DHT22;10940;48.890;8.240;2023-04-03T02:34:48;4.40;99.90
21559;DHT22;10940;48.890;8.240;2023-04-03T02:37:14;4.30;99.90
21559;DHT22;10940;48.890;8.240;2023-04-03T02:39:39;4.20;99.90
21559;DHT22;10940;48.890;8.240;2023-04-03T02:42:05;4.20;99.90
21559;DHT22;10940;48.890;8.240;2023-04-03T02:44:31;4.20;99.90
21559;DHT22;10940;48.890;8.240;2023-04-03T02:46:56;4.10;99.90
21559;DHT22;10940;48.890;8.240;2023-04-03T02:49:22;4.00;99.90
21559;DHT22;10940;48.890;8.240;2023-04-03T02:51:47;4.00;99.90
21559;DHT22;10940;48.890;8.240;2023-04-03T02:54:13;3.90;99.90
21559;DHT22;10940;48.890;8.240;2023-04-03T02:56:39;3.90;99.90
21559;DHT22;10940;48.890;8.240;2023-04-03T02:59:05;3.90;99.90
21559;DHT22;10940;48.890;8.240;2023-04-03T03:01:31;3.80;99.90
21559;DHT22;10940;48.890;8.240;2023-04-03T03:04:01;3.70;99.90
21559;DHT22;10940;48.890;8.240;2023-04-03T03:06:27;3.70;99.90
21559;DHT22;10940;48.890;8.240;2023-04-03T03:08:53;3.60;99.90
21559;DHT22;10940;48.890;8.240;2023-04-03T03:11:18;3.60;99.90
21559;DHT22;10940;48.890;8.240;2023-04-03T03:13:44;3.60;99.90
21559;DHT22;10940;48.890;8.240;2023-04-03T03:16:10;3.60;99.90
21559;DHT22;10940;48.890;8.240;2023-04-03T03:18:36;3.50;99.90
21559;DHT22;10940;48.890;8.240;2023-04-03T03:21:02;3.40;99.90
21559;DHT22;10940;48.890;8.240;2023-04-03T03:23:30;3.40;99.90
21559;DHT22;10940;48.890;8.240;2023-04-03T03:25:57;3.40;99.90
21559;DHT22;10940;48.890;8.240;2023-04-03T03:28:23;3.30;99.90
21559;DHT22;10940;48.890;8.240;2023-04-03T03:30:48;3.30;99.90
21559;DHT22;10940;48.890;8.240;2023-04-03T03:33:14;3.20;99.90
21559;DHT22;10940;48.890;8.240;2023-04-03T03:35:40;3.20;99.90
21559;DHT22;10940;48.890;8.240;2023-04-03T03:38:06;3.20;99.90
21559;DHT22;10940;48.890;8.240;2023-04-03T03:40:31;3.10;99.90
21559;DHT22;10940;48.890;8.240;2023-04-03T03:42:57;3.10;99.90
21559;DHT22;10940;48.890;8.240;2023-04-03T03:45:23;3.10;99.90
21559;DHT22;10940;48.890;8.240;2023-04-03T03:47:48;3.00;99.90
21559;DHT22;10940;48.890;8.240;2023-04-03T03:50:14;3.00;99.90
21559;DHT22;10940;48.890;8.240;2023-04-03T03:52:39;3.00;99.90
21559;DHT22;10940;48.890;8.240;2023-04-03T03:55:05;3.00;99.90
21559;DHT22;10940;48.890;8.240;2023-04-03T03:57:31;3.00;99.90
21559;DHT22;10940;48.890;8.240;2023-04-03T03:59:57;3.00;99.90
21559;DHT22;10940;48.890;8.240;2023-04-03T04:02:22;2.90;99.90
21559;DHT22;10940;48.890;8.240;2023-04-03T04:04:48;2.90;99.90
21559;DHT22;10940;48.890;8.240;2023-04-03T04:07:14;2.90;99.90
21559;DHT22;10940;48.890;8.240;2023-04-03T04:09:40;2.90;99.90
21559;DHT22;10940;48.890;8.240;2023-04-03T04:12:06;2.80;99.90
21559;DHT22;10940;48.890;8.240;2023-04-03T04:14:31;2.70;99.90
21559;DHT22;10940;48.890;8.240;2023-04-03T04:16:57;2.70;99.90
21559;DHT22;10940;48.890;8.240;2023-04-03T04:19:22;2.70;99.90
21559;DHT22;10940;48.890;8.240;2023-04-03T04:21:48;2.70;99.90
21559;DHT22;10940;48.890;8.240;2023-04-03T04:24:13;2.60;99.90
21559;DHT22;10940;48.890;8.240;2023-04-03T04:26:39;2.60;99.90
21559;DHT22;10940;48.890;8.240;2023-04-03T04:29:05;2.60;99.90
21559;DHT22;10940;48.890;8.240;2023-04-03T04:31:31;2.50;99.90
21559;DHT22;10940;48.890;8.240;2023-04-03T04:33:56;2.50;99.90
21559;DHT22;10940;48.890;8.240;2023-04-03T04:36:22;2.50;99.90
21559;DHT22;10940;48.890;8.240;2023-04-03T04:38:47;2.40;99.90
21559;DHT22;10940;48.890;8.240;2023-04-03T04:41:13;2.40;99.90
21559;DHT22;10940;48.890;8.240;2023-04-03T04:43:38;2.30;99.90
21559;DHT22;10940;48.890;8.240;2023-04-03T04:46:07;2.30;99.90
21559;DHT22;10940;48.890;8.240;2023-04-03T04:48:33;2.20;99.90
21559;DHT22;10940;48.890;8.240;2023-04-03T04:50:59;2.20;99.90
21559;DHT22;10940;48.890;8.240;2023-04-03T04:53:25;2.20;99.90
21559;DHT22;10940;48.890;8.240;2023-04-03T04:55:51;2.20;99.90
21559;DHT22;10940;48.890;8.240;2023-04-03T04:58:17;2.20;99.90
21559;DHT22;10940;48.890;8.240;2023-04-03T05:00:43;2.10;99.90
21559;DHT22;10940;48.890;8.240;2023-04-03T05:03:08;2.20;99.90
21559;DHT22;10940;48.890;8.240;2023-04-03T05:05:34;2.10;99.90
21559;DHT22;10940;48.890;8.240;2023-04-03T05:08:01;2.20;99.90
21559;DHT22;10940;48.890;8.240;2023-04-03T05:10:26;2.20;99.90
21559;DHT22;10940;48.890;8.240;2023-04-03T05:12:52;2.20;99.90
21559;DHT22;10940;48.890;8.240;2023-04-03T05:15:17;2.20;99.90
21559;DHT22;10940;48.890;8.240;2023-04-03T05:17:43;2.20;99.90
21559;DHT22;10940;48.890;8.240;2023-04-03T05:20:09;2.20;99.90
21559;DHT22;10940;48.890;8.240;2023-04-03T05:22:35;2.30;99.90
21559;DHT22;10940;48.890;8.240;2023-04-03T05:25:00;2.30;99.90
21559;DHT22;10940;48.890;8.240;2023-04-03T05:27:26;2.30;99.90
21559;DHT22;10940;48.890;8.240;2023-04-03T05:29:54;2.30;99.90
21559;DHT22;10940;48.890;8.240;2023-04-03T05:32:20;2.20;99.90
21559;DHT22;10940;48.890;8.240;2023-04-03T05:34:46;2.30;99.90
21559;DHT22;10940;48.890;8.240;2023-04-03T05:37:12;2.30;99.90
21559;DHT22;10940;48.890;8.240;2023-04-03T05:39:37;2.40;99.90
21559;DHT22;10940;48.890;8.240;2023-04-03T05:42:05;2.40;99.90
21559;DHT22;10940;48.890;8.240;2023-04-03T05:44:31;2.40;99.90
21559;DHT22;10940;48.890;8.240;2023-04-03T05:46:56;2.50;99.90
21559;DHT22;10940;48.890;8.240;2023-04-03T05:49:22;2.60;99.90
21559;DHT22;10940;48.890;8.240;2023-04-03T05:51:47;2.70;99.90
21559;DHT22;10940;48.890;8.240;2023-04-03T05:54:23;2.80;99.90
21559;DHT22;10940;48.890;8.240;2023-04-03T05:56:50;2.90;99.90
21559;DHT22;10940;48.890;8.240;2023-04-03T05:59:17;3.00;99.90
21559;DHT22;10940;48.890;8.240;2023-04-03T06:01:43;3.20;99.90
21559;DHT22;10940;48.890;8.240;2023-04-03T06:04:08;3.30;99.90
21559;DHT22;10940;48.890;8.240;2023-04-03T06:09:14;3.60;99.90
21559;DHT22;10940;48.890;8.240;2023-04-03T06:11:41;3.70;99.90
21559;DHT22;10940;48.890;8.240;2023-04-03T06:14:07;3.70;99.90
21559;DHT22;10940;48.890;8.240;2023-04-03T06:16:33;3.90;99.90
21559;DHT22;10940;48.890;8.240;2023-04-03T06:18:59;3.90;99.90
21559;DHT22;10940;48.890;8.240;2023-04-03T06:21:25;3.90;99.90
21559;DHT22;10940;48.890;8.240;2023-04-03T06:23:50;3.80;99.90
21559;DHT22;10940;48.890;8.240;2023-04-03T06:26:17;3.80;99.90
21559;DHT22;10940;48.890;8.240;2023-04-03T06:28:42;3.80;99.90
21559;DHT22;10940;48.890;8.240;2023-04-03T06:31:08;3.80;99.90
21559;DHT22;10940;48.890;8.240;2023-04-03T06:33:34;3.90;99.90
21559;DHT22;10940;48.890;8.240;2023-04-03T06:36:04;4.00;99.90
21559;DHT22;10940;48.890;8.240;2023-04-03T06:38:30;4.10;99.90
21559;DHT22;10940;48.890;8.240;2023-04-03T06:40:55;4.10;99.90
21559;DHT22;10940;48.890;8.240;2023-04-03T06:43:22;4.20;99.90
21559;DHT22;10940;48.890;8.240;2023-04-03T06:45:48;4.30;99.90
21559;DHT22;10940;48.890;8.240;2023-04-03T06:48:14;4.50;99.90
21559;DHT22;10940;48.890;8.240;2023-04-03T06:50:39;4.60;99.90
21559;DHT22;10940;48.890;8.240;2023-04-03T06:53:05;4.70;99.90
21559;DHT22;10940;48.890;8.240;2023-04-03T06:55:32;4.70;99.90
21559;DHT22;10940;48.890;8.240;2023-04-03T06:57:58;4.80;99.90
21559;DHT22;10940;48.890;8.240;2023-04-03T07:00:23;4.90;99.90
21559;DHT22;10940;48.890;8.240;2023-04-03T07:02:50;5.00;99.90
21559;DHT22;10940;48.890;8.240;2023-04-03T07:05:15;5.10;99.90
21559;DHT22;10940;48.890;8.240;2023-04-03T07:07:41;5.30;99.90
21559;DHT22;10940;48.890;8.240;2023-04-03T07:10:07;5.40;99.90
21559;DHT22;10940;48.890;8.240;2023-04-03T07:12:33;5.40;99.90
21559;DHT22;10940;48.890;8.240;2023-04-03T07:14:59;5.50;99.90
21559;DHT22;10940;48.890;8.240;2023-04-03T07:17:25;5.50;99.90
21559;DHT22;10940;48.890;8.240;2023-04-03T07:19:51;5.60;99.90
21559;DHT22;10940;48.890;8.240;2023-04-03T07:22:17;5.70;99.90
21559;DHT22;10940;48.890;8.240;2023-04-03T07:24:43;5.80;99.90
21559;DHT22;10940;48.890;8.240;2023-04-03T07:27:08;5.80;99.90
21559;DHT22;10940;48.890;8.240;2023-04-03T07:29:34;5.90;99.90
21559;DHT22;10940;48.890;8.240;2023-04-03T07:32:01;6.00;99.90
21559;DHT22;10940;48.890;8.240;2023-04-03T07:34:27;6.10;99.90
21559;DHT22;10940;48.890;8.240;2023-04-03T07:36:52;6.10;99.90
21559;DHT22;10940;48.890;8.240;2023-04-03T07:39:18;6.10;99.90
21559;DHT22;10940;48.890;8.240;2023-04-03T07:41:44;6.10;99.90
21559;DHT22;10940;48.890;8.240;2023-04-03T07:44:11;6.20;99.90
21559;DHT22;10940;48.890;8.240;2023-04-03T07:46:37;6.20;99.90
21559;DHT22;10940;48.890;8.240;2023-04-03T07:49:03;6.20;99.90
21559;DHT22;10940;48.890;8.240;2023-04-03T07:51:29;6.20;99.90
21559;DHT22;10940;48.890;8.240;2023-04-03T07:53:55;6.10;99.90
21559;DHT22;10940;48.890;8.240;2023-04-03T07:56:21;6.20;99.90
21559;DHT22;10940;48.890;8.240;2023-04-03T07:58:48;6.10;99.90
21559;DHT22;10940;48.890;8.240;2023-04-03T08:01:13;6.10;99.90
21559;DHT22;10940;48.890;8.240;2023-04-03T08:03:39;6.10;99.90
21559;DHT22;10940;48.890;8.240;2023-04-03T08:06:07;6.10;99.90
21559;DHT22;10940;48.890;8.240;2023-04-03T08:08:34;6.20;99.90
21559;DHT22;10940;48.890;8.240;2023-04-03T08:11:01;6.30;99.90
21559;DHT22;10940;48.890;8.240;2023-04-03T08:13:28;6.40;99.90
21559;DHT22;10940;48.890;8.240;2023-04-03T08:15:54;6.60;99.90
21559;DHT22;10940;48.890;8.240;2023-04-03T08:18:22;6.80;99.90
21559;DHT22;10940;48.890;8.240;2023-04-03T08:20:50;7.10;99.90
21559;DHT22;10940;48.890;8.240;2023-04-03T08:23:15;7.30;99.90
21559;DHT22;10940;48.890;8.240;2023-04-03T08:25:42;7.40;99.90
21559;DHT22;10940;48.890;8.240;2023-04-03T08:28:08;7.40;99.90
21559;DHT22;10940;48.890;8.240;2023-04-03T08:30:34;7.40;99.90
21559;DHT22;10940;48.890;8.240;2023-04-03T08:33:01;7.40;99.90
21559;DHT22;10940;48.890;8.240;2023-04-03T08:35:27;7.40;99.90
21559;DHT22;10940;48.890;8.240;2023-04-03T08:37:53;7.40;99.90
21559;DHT22;10940;48.890;8.240;2023-04-03T08:40:19;7.30;99.90
21559;DHT22;10940;48.890;8.240;2023-04-03T08:42:57;7.50;99.90
21559;DHT22;10940;48.890;8.240;2023-04-03T08:45:53;7.70;99.90
21559;DHT22;10940;48.890;8.240;2023-04-03T08:48:27;7.90;99.90
21559;DHT22;10940;48.890;8.240;2023-04-03T08:50:56;8.00;99.90
21559;DHT22;10940;48.890;8.240;2023-04-03T08:53:26;8.00;99.90
21559;DHT22;10940;48.890;8.240;2023-04-03T08:55:54;8.00;99.90
21559;DHT22;10940;48.890;8.240;2023-04-03T08:58:23;8.10;99.90
21559;DHT22;10940;48.890;8.240;2023-04-03T09:01:01;8.00;99.90
21559;DHT22;10940;48.890;8.240;2023-04-03T09:03:31;8.10;99.90
21559;DHT22;10940;48.890;8.240;2023-04-03T09:06:15;8.10;99.90
21559;DHT22;10940;48.890;8.240;2023-04-03T09:11:27;8.20;99.90
21559;DHT22;10940;48.890;8.240;2023-04-03T09:16:52;8.20;99.90
21559;DHT22;10940;48.890;8.240;2023-04-03T09:21:58;8.00;99.90
21559;DHT22;10940;48.890;8.240;2023-04-03T09:24:24;7.90;99.90
21559;DHT22;10940;48.890;8.240;2023-04-03T09:26:57;7.90;99.90
21559;DHT22;10940;48.890;8.240;2023-04-03T09:29:25;8.10;99.90
21559;DHT22;10940;48.890;8.240;2023-04-03T09:32:02;8.20;99.90
21559;DHT22;10940;48.890;8.240;2023-04-03T09:34:38;8.30;99.90
21559;DHT22;10940;48.890;8.240;2023-04-03T09:37:07;8.40;99.90
21559;DHT22;10940;48.890;8.240;2023-04-03T09:39:54;8.40;99.90
21559;DHT22;10940;48.890;8.240;2023-04-03T09:42:23;8.30;99.90
21559;DHT22;10940;48.890;8.240;2023-04-03T09:45:01;8.30;99.90
21559;DHT22;10940;48.890;8.240;2023-04-03T09:47:35;8.10;99.90
21559;DHT22;10940;48.890;8.240;2023-04-03T09:52:45;7.80;99.90
21559;DHT22;10940;48.890;8.240;2023-04-03T09:55:23;7.60;99.90
21559;DHT22;10940;48.890;8.240;2023-04-03T09:58:03;7.50;99.90
21559;DHT22;10940;48.890;8.240;2023-04-03T10:00:37;7.50;99.90
21559;DHT22;10940;48.890;8.240;2023-04-03T10:03:04;7.80;99.90
21559;DHT22;10940;48.890;8.240;2023-04-03T10:13:32;8.10;99.90
21559;DHT22;10940;48.890;8.240;2023-04-03T10:21:19;8.20;99.90
21559;DHT22;10940;48.890;8.240;2023-04-03T10:23:53;8.20;99.90
21559;DHT22;10940;48.890;8.240;2023-04-03T10:32:30;8.30;99.90
21559;DHT22;10940;48.890;8.240;2023-04-03T10:37:59;8.50;99.90
21559;DHT22;10940;48.890;8.240;2023-04-03T10:40:51;8.30;99.90
21559;DHT22;10940;48.890;8.240;2023-04-03T10:49:02;8.20;99.90
21559;DHT22;10940;48.890;8.240;2023-04-03T10:51:43;8.20;99.90
21559;DHT22;10940;48.890;8.240;2023-04-03T10:54:20;8.30;99.90
21559;DHT22;10940;48.890;8.240;2023-04-03T10:56:56;8.20;99.90
21559;DHT22;10940;48.890;8.240;2023-04-03T10:59:41;8.10;99.90
21559;DHT22;10940;48.890;8.240;2023-04-03T11:02:16;8.10;99.90
21559;DHT22;10940;48.890;8.240;2023-04-03T11:04:48;8.10;99.90
21559;DHT22;10940;48.890;8.240;2023-04-03T11:07:22;8.20;99.90
21559;DHT22;10940;48.890;8.240;2023-04-03T11:09:52;8.40;99.90
21559;DHT22;10940;48.890;8.240;2023-04-03T11:12:38;8.60;99.90
21559;DHT22;10940;48.890;8.240;2023-04-03T11:15:18;8.80;99.90
21559;DHT22;10940;48.890;8.240;2023-04-03T11:17:51;8.80;99.90
21559;DHT22;10940;48.890;8.240;2023-04-03T11:22:58;9.10;99.90
21559;DHT22;10940;48.890;8.240;2023-04-03T11:25:26;9.20;99.90
21559;DHT22;10940;48.890;8.240;2023-04-03T11:28:00;9.30;99.90
21559;DHT22;10940;48.890;8.240;2023-04-03T11:36:12;8.80;99.90
21559;DHT22;10940;48.890;8.240;2023-04-03T11:38:42;9.00;99.90
21559;DHT22;10940;48.890;8.240;2023-04-03T11:41:10;8.90;99.90
21559;DHT22;10940;48.890;8.240;2023-04-03T11:44:04;8.80;99.90
21559;DHT22;10940;48.890;8.240;2023-04-03T11:49:55;8.70;99.90
21559;DHT22;10940;48.890;8.240;2023-04-03T11:58:04;8.50;99.90
21559;DHT22;10940;48.890;8.240;2023-04-03T12:00:53;8.70;99.90
21559;DHT22;10940;48.890;8.240;2023-04-03T12:05:49;8.70;99.90
21559;DHT22;10940;48.890;8.240;2023-04-03T12:08:45;8.70;99.90
21559;DHT22;10940;48.890;8.240;2023-04-03T12:16:28;8.70;99.90
21559;DHT22;10940;48.890;8.240;2023-04-03T12:29:27;8.40;99.90
21559;DHT22;10940;48.890;8.240;2023-04-03T12:40:24;8.40;99.90
21559;DHT22;10940;48.890;8.240;2023-04-03T12:43:01;8.60;99.90
21559;DHT22;10940;48.890;8.240;2023-04-03T12:45:44;8.60;99.90
21559;DHT22;10940;48.890;8.240;2023-04-03T12:48:17;8.60;99.90
21559;DHT22;10940;48.890;8.240;2023-04-03T12:50:45;8.60;99.90
21559;DHT22;10940;48.890;8.240;2023-04-03T12:53:18;8.60;99.90
21559;DHT22;10940;48.890;8.240;2023-04-03T12:55:44;8.60;99.90
21559;DHT22;10940;48.890;8.240;2023-04-03T12:58:36;8.60;99.90
21559;DHT22;10940;48.890;8.240;2023-04-03T13:01:08;8.50;99.90
21559;DHT22;10940;48.890;8.240;2023-04-03T13:03:37;8.50;99.90
21559;DHT22;10940;48.890;8.240;2023-04-03T13:06:04;8.40;99.90
21559;DHT22;10940;48.890;8.240;2023-04-03T13:08:31;8.30;99.90
21559;DHT22;10940;48.890;8.240;2023-04-03T13:11:10;8.30;99.90
21559;DHT22;10940;48.890;8.240;2023-04-03T13:13:36;8.30;99.90
21559;DHT22;10940;48.890;8.240;2023-04-03T13:16:10;8.30;99.90
21559;DHT22;10940;48.890;8.240;2023-04-03T13:18:37;8.20;99.90
21559;DHT22;10940;48.890;8.240;2023-04-03T13:21:15;8.20;99.90
21559;DHT22;10940;48.890;8.240;2023-04-03T13:23:46;8.00;99.90
21559;DHT22;10940;48.890;8.240;2023-04-03T13:26:16;8.00;99.90
21559;DHT22;10940;48.890;8.240;2023-04-03T13:28:44;8.00;99.90
21559;DHT22;10940;48.890;8.240;2023-04-03T13:34:06;8.00;99.90
21559;DHT22;10940;48.890;8.240;2023-04-03T13:36:36;8.10;99.90
21559;DHT22;10940;48.890;8.240;2023-04-03T13:41:42;8.20;99.90
21559;DHT22;10940;48.890;8.240;2023-04-03T13:46:41;8.20;99.90
21559;DHT22;10940;48.890;8.240;2023-04-03T13:51:52;8.10;99.90
21559;DHT22;10940;48.890;8.240;2023-04-03T13:54:34;8.10;99.90
21559;DHT22;10940;48.890;8.240;2023-04-03T13:57:01;8.10;99.90
21559;DHT22;10940;48.890;8.240;2023-04-03T13:59:33;8.10;99.90
21559;DHT22;10940;48.890;8.240;2023-04-03T14:05:11;8.30;99.90
21559;DHT22;10940;48.890;8.240;2023-04-03T14:07:18;8.30;99.90
21559;DHT22;10940;48.890;8.240;2023-04-03T14:09:46;8.40;99.90
21559;DHT22;10940;48.890;8.240;2023-04-03T14:14:45;8.40;99.90
21559;DHT22;10940;48.890;8.240;2023-04-03T14:17:17;8.30;99.90
21559;DHT22;10940;48.890;8.240;2023-04-03T14:19:44;8.30;99.90
21559;DHT22;10940;48.890;8.240;2023-04-03T14:22:19;8.30;99.90
21559;DHT22;10940;48.890;8.240;2023-04-03T14:24:47;8.20;99.90
21559;DHT22;10940;48.890;8.240;2023-04-03T14:27:23;8.10;99.90
21559;DHT22;10940;48.890;8.240;2023-04-03T14:29:51;8.10;99.90
21559;DHT22;10940;48.890;8.240;2023-04-03T14:32:18;8.10;99.90
21559;DHT22;10940;48.890;8.240;2023-04-03T14:34:45;8.10;99.90
21559;DHT22;10940;48.890;8.240;2023-04-03T14:37:17;8.10;99.90
21559;DHT22;10940;48.890;8.240;2023-04-03T14:39:43;8.20;99.90
21559;DHT22;10940;48.890;8.240;2023-04-03T14:42:15;8.30;99.90
21559;DHT22;10940;48.890;8.240;2023-04-03T14:44:41;8.40;99.90
21559;DHT22;10940;48.890;8.240;2023-04-03T14:47:16;8.40;99.90
21559;DHT22;10940;48.890;8.240;2023-04-03T14:49:41;8.40;99.90
21559;DHT22;10940;48.890;8.240;2023-04-03T14:52:26;8.50;99.90
21559;DHT22;10940;48.890;8.240;2023-04-03T14:54:53;8.40;99.90
21559;DHT22;10940;48.890;8.240;2023-04-03T14:57:19;8.30;99.90
21559;DHT22;10940;48.890;8.240;2023-04-03T14:59:46;8.40;99.90
21559;DHT22;10940;48.890;8.240;2023-04-03T15:02:28;8.40;99.90
21559;DHT22;10940;48.890;8.240;2023-04-03T15:04:55;8.50;99.90
21559;DHT22;10940;48.890;8.240;2023-04-03T15:07:21;8.50;99.90
21559;DHT22;10940;48.890;8.240;2023-04-03T15:09:48;8.50;99.90
21559;DHT22;10940;48.890;8.240;2023-04-03T15:12:13;8.40;99.90
21559;DHT22;10940;48.890;8.240;2023-04-03T15:14:39;8.30;99.90
21559;DHT22;10940;48.890;8.240;2023-04-03T15:17:06;8.30;99.90
21559;DHT22;10940;48.890;8.240;2023-04-03T15:19:38;8.50;99.90
21559;DHT22;10940;48.890;8.240;2023-04-03T15:22:04;8.70;99.90
21559;DHT22;10940;48.890;8.240;2023-04-03T15:24:30;9.00;99.90
21559;DHT22;10940;48.890;8.240;2023-04-03T15:26:56;9.10;99.90
21559;DHT22;10940;48.890;8.240;2023-04-03T15:29:21;9.10;99.90
21559;DHT22;10940;48.890;8.240;2023-04-03T15:31:47;9.00;99.90
21559;DHT22;10940;48.890;8.240;2023-04-03T15:34:15;8.70;99.90
21559;DHT22;10940;48.890;8.240;2023-04-03T15:36:41;8.50;99.90
21559;DHT22;10940;48.890;8.240;2023-04-03T15:39:07;8.40;99.90
21559;DHT22;10940;48.890;8.240;2023-04-03T15:41:32;8.50;99.90
21559;DHT22;10940;48.890;8.240;2023-04-03T15:43:58;8.40;99.90
21559;DHT22;10940;48.890;8.240;2023-04-03T15:46:23;8.40;99.90
21559;DHT22;10940;48.890;8.240;2023-04-03T15:48:49;8.30;99.90
21559;DHT22;10940;48.890;8.240;2023-04-03T15:51:15;8.10;99.90
21559;DHT22;10940;48.890;8.240;2023-04-03T15:53:41;8.20;99.90
21559;DHT22;10940;48.890;8.240;2023-04-03T15:56:07;8.30;99.90
21559;DHT22;10940;48.890;8.240;2023-04-03T15:58:35;8.60;99.90
21559;DHT22;10940;48.890;8.240;2023-04-03T16:01:01;8.60;99.90
21559;DHT22;10940;48.890;8.240;2023-04-03T16:03:27;8.60;99.90
21559;DHT22;10940;48.890;8.240;2023-04-03T16:05:53;8.50;99.90
21559;DHT22;10940;48.890;8.240;2023-04-03T16:08:18;8.30;99.90
21559;DHT22;10940;48.890;8.240;2023-04-03T16:10:44;8.20;99.90
21559;DHT22;10940;48.890;8.240;2023-04-03T16:13:14;8.00;99.90
21559;DHT22;10940;48.890;8.240;2023-04-03T16:15:40;7.90;99.90
21559;DHT22;10940;48.890;8.240;2023-04-03T16:18:07;7.90;99.90
21559;DHT22;10940;48.890;8.240;2023-04-03T16:20:34;8.00;99.90
21559;DHT22;10940;48.890;8.240;2023-04-03T16:23:00;8.10;99.90
21559;DHT22;10940;48.890;8.240;2023-04-03T16:25:26;8.20;99.90
21559;DHT22;10940;48.890;8.240;2023-04-03T16:27:52;8.40;99.90
21559;DHT22;10940;48.890;8.240;2023-04-03T16:30:18;8.50;99.90
21559;DHT22;10940;48.890;8.240;2023-04-03T16:32:45;8.50;99.90
21559;DHT22;10940;48.890;8.240;2023-04-03T16:35:10;8.40;99.90
21559;DHT22;10940;48.890;8.240;2023-04-03T16:37:37;8.40;99.90
21559;DHT22;10940;48.890;8.240;2023-04-03T16:40:03;8.20;99.90
21559;DHT22;10940;48.890;8.240;2023-04-03T16:42:30;8.00;99.90
21559;DHT22;10940;48.890;8.240;2023-04-03T16:44:56;7.90;99.90
21559;DHT22;10940;48.890;8.240;2023-04-03T16:47:21;7.80;99.90
21559;DHT22;10940;48.890;8.240;2023-04-03T16:49:47;7.60;99.90
21559;DHT22;10940;48.890;8.240;2023-04-03T16:52:13;7.50;99.90
21559;DHT22;10940;48.890;8.240;2023-04-03T16:54:39;7.50;99.90
21559;DHT22;10940;48.890;8.240;2023-04-03T16:57:05;7.60;99.90
21559;DHT22;10940;48.890;8.240;2023-04-03T16:59:30;7.70;99.90
21559;DHT22;10940;48.890;8.240;2023-04-03T17:01:56;7.70;99.90
21559;DHT22;10940;48.890;8.240;2023-04-03T17:04:22;7.80;99.90
21559;DHT22;10940;48.890;8.240;2023-04-03T17:06:47;7.90;99.90
21559;DHT22;10940;48.890;8.240;2023-04-03T17:09:13;7.90;99.90
21559;DHT22;10940;48.890;8.240;2023-04-03T17:11:39;7.80;99.90
21559;DHT22;10940;48.890;8.240;2023-04-03T17:14:05;7.80;99.90
21559;DHT22;10940;48.890;8.240;2023-04-03T17:16:33;7.70;99.90
21559;DHT22;10940;48.890;8.240;2023-04-03T17:18:59;7.70;99.90
21559;DHT22;10940;48.890;8.240;2023-04-03T17:21:25;7.60;99.90
21559;DHT22;10940;48.890;8.240;2023-04-03T17:23:55;7.60;99.90
21559;DHT22;10940;48.890;8.240;2023-04-03T17:26:23;7.50;99.90
21559;DHT22;10940;48.890;8.240;2023-04-03T17:28:48;7.50;99.90
21559;DHT22;10940;48.890;8.240;2023-04-03T17:31:14;7.40;99.90
21559;DHT22;10940;48.890;8.240;2023-04-03T17:33:40;7.40;99.90